Time;durP1;ratioP1;P1;durP2;ratioP2;P2;SDS_P1;SDS_P2;PMS_P1;PMS_P2;Temp;Humidity;BMP_temperature;BMP_pressure;BME280_temperature;BME280_humidity;BME280_pressure;Samples;Min_cycle;Max_cycle;Signal;HPM_P1;HPM_P2
2022/06/02 00:00:05;;;;;;;0.68;0.68;;;;;;;13.20;59.25;98773.06;4151351;28;20196;-54
2022/06/02 00:02:18;;;;;;;1.20;1.10;;;;;;;13.11;59.51;98769.97;4157581;28;20307;-54
2022/06/02 00:04:35;;;;;;;1.48;1.05;;;;;;;13.08;59.57;98770.50;4153503;28;20283;-55
2022/06/02 00:07:30;;;;;;;1.00;1.00;;;;;;;12.97;59.64;98771.47;4140752;28;20233;-54
2022/06/02 00:09:35;;;;;;;0.77;0.77;;;;;;;12.94;59.97;98773.88;4130306;28;20263;-54
2022/06/02 00:11:45;;;;;;;0.93;0.93;;;;;;;12.93;59.79;98770.31;4151461;28;20304;-54
2022/06/02 00:14:10;;;;;;;0.90;0.90;;;;;;;12.86;59.87;98769.69;4137308;28;20217;-54
2022/06/02 00:16:25;;;;;;;1.20;1.10;;;;;;;12.83;60.00;98772.94;4137731;28;20214;-54
2022/06/02 00:18:31;;;;;;;1.05;1.05;;;;;;;12.78;59.98;98769.31;4145322;28;20308;-54
2022/06/02 00:20:39;;;;;;;1.52;1.42;;;;;;;12.74;60.11;98780.00;4136557;28;20212;-55
2022/06/02 00:23:32;;;;;;;1.00;1.00;;;;;;;12.74;60.32;98788.22;4135272;28;20244;-54
2022/06/02 00:26:11;;;;;;;0.80;0.80;;;;;;;12.79;60.12;98790.19;4120407;28;20213;-55
2022/06/02 00:28:42;;;;;;;0.80;0.80;;;;;;;12.77;59.97;98787.69;4133857;28;20208;-54
2022/06/02 00:31:10;;;;;;;1.45;0.80;;;;;;;12.73;60.29;98792.06;4127324;28;20198;-54
2022/06/02 00:33:14;;;;;;;1.00;1.00;;;;;;;12.62;60.49;98792.19;4149491;28;20232;-55
2022/06/02 00:35:23;;;;;;;0.90;0.90;;;;;;;12.54;60.72;98798.97;4140200;28;20563;-54
2022/06/02 00:37:38;;;;;;;0.80;0.80;;;;;;;12.48;61.17;98802.72;4154482;28;20270;-55
2022/06/02 00:39:40;;;;;;;15.20;0.85;;;;;;;12.48;60.84;98808.22;4137003;28;20197;-54
2022/06/02 00:41:54;;;;;;;0.80;0.80;;;;;;;12.47;60.90;98801.06;4139002;28;20655;-54
2022/06/02 00:44:16;;;;;;;0.90;0.90;;;;;;;12.44;60.99;98800.75;4135354;28;20214;-54
2022/06/02 00:47:01;;;;;;;0.70;0.70;;;;;;;12.39;60.89;98809.75;4156280;28;20229;-55
2022/06/02 00:49:09;;;;;;;0.80;0.80;;;;;;;12.30;61.04;98815.94;4143938;28;20600;-54
2022/06/02 00:51:14;;;;;;;0.70;0.70;;;;;;;12.28;61.31;98807.94;4143754;28;20209;-54
2022/06/02 00:53:31;;;;;;;0.85;0.85;;;;;;;12.28;61.29;98810.69;4138554;28;20765;-53
2022/06/02 00:58:28;;;;;;;0.82;0.82;;;;;;;12.04;62.03;98822.16;4151144;28;20540;-55
2022/06/02 01:00:41;;;;;;;1.27;1.20;;;;;;;12.05;61.83;98813.66;4131276;28;20268;-54
2022/06/02 01:03:10;;;;;;;0.85;0.85;;;;;;;12.09;61.69;98814.81;4134637;28;20631;-53
2022/06/02 01:05:15;;;;;;;0.80;0.80;;;;;;;12.07;61.91;98813.41;4153517;28;20198;-53
2022/06/02 01:07:24;;;;;;;0.80;0.80;;;;;;;12.04;61.53;98817.47;4144830;28;20283;-53
2022/06/02 01:09:34;;;;;;;0.95;0.95;;;;;;;12.06;61.44;98820.81;4138503;28;20200;-54
2022/06/02 01:11:36;;;;;;;0.77;0.77;;;;;;;12.08;61.37;98824.13;4153087;28;20201;-53
2022/06/02 01:14:00;;;;;;;4.13;0.80;;;;;;;12.01;61.50;98818.00;4133816;28;20230;-53
2022/06/02 01:16:15;;;;;;;0.82;0.82;;;;;;;12.00;61.23;98827.31;4143546;28;20260;-53
2022/06/02 01:18:22;;;;;;;0.63;0.63;;;;;;;11.92;61.32;98824.97;4133508;28;20683;-54
2022/06/02 01:21:03;;;;;;;1.13;1.13;;;;;;;11.88;61.71;98822.97;4136446;28;20725;-54
2022/06/02 01:23:35;;;;;;;0.95;0.90;;;;;;;11.82;61.78;98819.34;4071006;29;20236;-55
2022/06/02 01:25:56;;;;;;;1.38;1.35;;;;;;;11.73;61.70;98822.75;4074365;29;20571;-53
2022/06/02 01:28:22;;;;;;;0.90;0.90;;;;;;;11.66;61.71;98828.41;4096890;28;20209;-53
2022/06/02 01:30:29;;;;;;;0.95;0.95;;;;;;;11.63;61.81;98826.16;4152544;28;20216;-54
2022/06/02 01:33:13;;;;;;;0.80;0.80;;;;;;;11.64;62.07;98827.00;4154191;28;21209;-54
2022/06/02 01:35:44;;;;;;;0.95;0.95;;;;;;;11.61;62.20;98822.84;4138256;28;20689;-55
2022/06/02 01:38:20;;;;;;;1.00;1.00;;;;;;;11.61;62.29;98822.00;4127592;28;20256;-53
2022/06/02 01:40:43;;;;;;;0.93;0.93;;;;;;;11.60;62.00;98828.56;4150160;28;20279;-53
2022/06/02 01:42:59;;;;;;;1.20;1.10;;;;;;;11.61;62.25;98833.81;4153301;28;20232;-54
2022/06/02 01:45:04;;;;;;;0.90;0.90;;;;;;;11.61;62.09;98827.47;4135285;28;20647;-54
2022/06/02 01:47:18;;;;;;;0.88;0.88;;;;;;;11.54;62.24;98826.78;4134987;28;20240;-55
2022/06/02 01:49:49;;;;;;;1.13;1.13;;;;;;;11.53;62.04;98830.59;4133818;28;20209;-52
2022/06/02 01:52:18;;;;;;;1.58;1.00;;;;;;;11.52;62.14;98821.53;4136315;28;20237;-54
2022/06/02 01:54:39;;;;;;;1.00;1.00;;;;;;;11.46;62.09;98828.03;4133932;28;20256;-54
2022/06/02 01:57:03;;;;;;;1.75;1.65;;;;;;;11.43;61.60;98825.78;4151962;28;20274;-55
2022/06/02 01:59:32;;;;;;;6.43;1.27;;;;;;;11.43;62.25;98831.25;4153965;28;20278;-54
2022/06/02 02:01:37;;;;;;;0.70;0.70;;;;;;;11.40;61.59;98837.25;4153071;28;20198;-54
2022/06/02 02:04:31;;;;;;;1.30;1.20;;;;;;;11.33;61.96;98831.09;4151184;28;20228;-55
2022/06/02 02:06:44;;;;;;;0.93;0.93;;;;;;;11.23;62.10;98836.38;4155584;28;20714;-54
2022/06/02 02:09:03;;;;;;;1.00;1.00;;;;;;;11.12;62.37;98834.53;4121975;28;20202;-54
2022/06/02 02:11:17;;;;;;;2.65;1.00;;;;;;;11.04;62.59;98840.41;4152174;28;20209;-54
2022/06/02 02:13:43;;;;;;;1.00;1.00;;;;;;;10.98;63.07;98844.13;4151919;28;20282;-54
2022/06/02 02:16:03;;;;;;;1.10;1.10;;;;;;;10.95;63.19;98850.09;4151858;28;20208;-54
2022/06/02 02:18:31;;;;;;;1.08;1.08;;;;;;;10.89;63.37;98833.78;4136166;28;20798;-54
2022/06/02 02:20:46;;;;;;;1.60;1.20;;;;;;;10.89;63.47;98842.84;4109873;28;20683;-54
2022/06/02 02:23:03;;;;;;;1.27;1.17;;;;;;;10.86;63.08;98845.25;4135933;28;20264;-54
2022/06/02 02:25:17;;;;;;;1.20;0.88;;;;;;;10.85;63.40;98849.88;4141960;28;20201;-54
2022/06/02 02:30:10;;;;;;;1.58;0.95;;;;;;;10.82;63.23;98847.66;4155862;28;20671;-54
2022/06/02 02:32:27;;;;;;;1.08;0.88;;;;;;;10.77;63.27;98847.53;4154373;28;20224;-53
2022/06/02 02:34:29;;;;;;;1.40;1.30;;;;;;;10.73;63.61;98858.38;4137445;28;20224;-53
2022/06/02 02:36:31;;;;;;;3.28;1.30;;;;;;;10.69;63.38;98857.22;4136226;28;20205;-53
2022/06/02 02:38:54;;;;;;;1.02;1.02;;;;;;;10.65;63.72;98854.13;4135412;28;20209;-53
2022/06/02 02:41:47;;;;;;;0.88;0.88;;;;;;;10.62;63.59;98859.25;4136508;28;20209;-55
2022/06/02 02:44:03;;;;;;;1.10;1.10;;;;;;;10.55;63.65;98858.56;4155441;28;20275;-54
2022/06/02 02:46:10;;;;;;;1.10;1.10;;;;;;;10.56;63.46;98860.22;4122323;28;20623;-53
2022/06/02 02:48:36;;;;;;;1.10;1.10;;;;;;;10.57;63.57;98856.41;4137242;28;20220;-53
2022/06/02 02:50:46;;;;;;;1.45;1.10;;;;;;;10.57;63.48;98861.88;4133433;28;20238;-54
2022/06/02 02:53:06;;;;;;;2.42;1.10;;;;;;;10.58;63.61;98863.53;4134114;28;20241;-53
2022/06/02 02:55:41;;;;;;;1.40;1.30;;;;;;;10.56;63.43;98860.22;4152680;28;20210;-53
2022/06/02 02:57:57;;;;;;;0.93;0.93;;;;;;;10.52;63.19;98859.88;4147378;28;20239;-53
2022/06/02 03:00:15;;;;;;;1.63;1.30;;;;;;;10.53;63.40;98860.69;4151693;28;20249;-53
2022/06/02 03:02:43;;;;;;;1.17;1.10;;;;;;;10.53;63.38;98861.53;4122935;28;20730;-53
2022/06/02 03:05:00;;;;;;;1.30;1.30;;;;;;;10.57;63.23;98859.16;4152405;28;20213;-54
2022/06/02 03:07:02;;;;;;;1.02;0.90;;;;;;;10.53;63.38;98860.69;4142625;28;20251;-53
2022/06/02 03:09:27;;;;;;;1.33;1.25;;;;;;;10.51;63.31;98862.84;4131707;28;20253;-55
2022/06/02 03:11:48;;;;;;;1.08;1.08;;;;;;;10.46;63.30;98866.31;4141456;28;20209;-54
2022/06/02 03:14:04;;;;;;;1.30;1.08;;;;;;;10.46;63.11;98866.31;4132837;28;20210;-54
2022/06/02 03:16:08;;;;;;;0.98;0.98;;;;;;;10.45;63.40;98863.81;4134117;28;20837;-54
2022/06/02 03:18:16;;;;;;;1.20;1.10;;;;;;;10.38;63.57;98863.09;4150294;28;20267;-54
2022/06/02 03:20:18;;;;;;;1.08;1.08;;;;;;;10.29;63.40;98864.56;4150836;28;20274;-55
2022/06/02 03:22:31;;;;;;;1.40;1.30;;;;;;;10.22;63.82;98875.59;4152073;28;20224;-56
2022/06/02 03:24:50;;;;;;;1.52;1.42;;;;;;;10.18;64.04;98870.84;4136167;28;24538;-56
2022/06/02 03:27:13;;;;;;;1.40;1.30;;;;;;;10.21;63.75;98873.13;4141501;28;20252;-56
2022/06/02 03:29:42;;;;;;;1.23;1.23;;;;;;;10.22;63.82;98869.31;4136552;28;20229;-56
2022/06/02 03:31:56;;;;;;;1.50;1.40;;;;;;;10.14;64.00;98872.41;4127076;28;20206;-55
2022/06/02 03:34:11;;;;;;;1.20;1.10;;;;;;;9.98;64.60;98873.09;4153928;28;20750;-56
2022/06/02 03:36:33;;;;;;;1.15;1.15;;;;;;;9.92;64.71;98871.28;4137798;28;20824;-56
2022/06/02 03:38:55;;;;;;;1.70;1.63;;;;;;;9.88;65.20;98868.22;4154562;28;20651;-54
2022/06/02 03:41:30;;;;;;;1.20;1.10;;;;;;;9.84;65.13;98879.84;4138200;28;20577;-54
2022/06/02 03:43:47;;;;;;;2.35;1.23;;;;;;;9.76;65.40;98885.69;4145120;28;20283;-54
2022/06/02 03:45:56;;;;;;;1.27;1.17;;;;;;;9.77;65.33;98885.44;4156596;28;20212;-54
2022/06/02 03:48:06;;;;;;;1.73;1.63;;;;;;;9.80;65.02;98881.38;4153777;28;20744;-54
2022/06/02 03:50:25;;;;;;;1.20;1.20;;;;;;;9.84;64.43;98893.53;4153911;28;20209;-55
2022/06/02 03:52:39;;;;;;;1.08;1.08;;;;;;;9.86;64.74;98880.44;4139027;28;20230;-55
2022/06/02 03:54:53;;;;;;;0.98;0.98;;;;;;;9.87;64.57;98888.41;4137688;28;20652;-55
2022/06/02 03:57:36;;;;;;;1.20;1.20;;;;;;;9.89;64.19;98893.66;4153835;28;20227;-55
2022/06/02 03:59:52;;;;;;;1.35;1.25;;;;;;;9.86;64.24;98896.84;4102429;28;20698;-55
2022/06/02 04:02:01;;;;;;;1.58;1.48;;;;;;;9.83;64.49;98892.66;4155040;28;20236;-55
2022/06/02 04:04:18;;;;;;;1.23;1.13;;;;;;;9.80;64.56;98897.78;4136051;28;20711;-55
2022/06/02 04:06:20;;;;;;;1.40;1.30;;;;;;;9.71;64.76;98899.19;4125636;28;20659;-54
2022/06/02 04:08:40;;;;;;;1.67;1.38;;;;;;;9.71;65.03;98893.75;4153974;28;20259;-54
2022/06/02 04:11:00;;;;;;;1.63;1.52;;;;;;;9.69;64.99;98890.41;4152261;28;20193;-55
2022/06/02 04:13:38;;;;;;;1.13;1.08;;;;;;;9.66;65.43;98885.41;4153992;28;20225;-56
2022/06/02 04:16:01;;;;;;;1.50;1.40;;;;;;;9.69;65.64;98890.41;4152287;28;20236;-56
2022/06/02 04:18:18;;;;;;;1.45;1.40;;;;;;;9.69;65.89;98890.41;4142951;28;20292;-56
2022/06/02 04:20:35;;;;;;;1.73;1.63;;;;;;;9.68;65.40;98895.03;4136430;28;20244;-56
2022/06/02 04:22:48;;;;;;;1.30;1.30;;;;;;;9.69;65.23;98890.41;4136379;28;20829;-56
2022/06/02 04:25:17;;;;;;;3.80;1.65;;;;;;;9.72;65.41;98900.88;4137523;28;20210;-56
2022/06/02 04:27:53;;;;;;;1.35;1.35;;;;;;;9.71;65.57;98893.75;4137027;28;20249;-55
2022/06/02 04:30:06;;;;;;;1.45;1.35;;;;;;;9.77;65.47;98898.25;4119851;28;20213;-55
2022/06/02 04:32:16;;;;;;;1.40;1.30;;;;;;;9.73;65.68;98891.59;4152248;28;20655;-55
2022/06/02 04:34:35;;;;;;;1.98;1.88;;;;;;;9.67;66.21;98892.56;4153424;28;20228;-55
2022/06/02 04:36:52;;;;;;;2.00;1.75;;;;;;;9.70;66.19;98892.09;4128011;28;20209;-55
2022/06/02 04:39:15;;;;;;;1.33;1.23;;;;;;;9.60;67.31;98886.34;4136193;28;20699;-56
2022/06/02 04:41:45;;;;;;;1.45;1.38;;;;;;;9.65;67.08;98892.78;4154852;28;20212;-55
2022/06/02 04:44:02;;;;;;;1.25;1.25;;;;;;;9.74;66.64;98898.75;4137480;28;20236;-55
2022/06/02 04:46:10;;;;;;;1.30;1.30;;;;;;;9.71;66.68;98900.06;4120360;28;20221;-56
2022/06/02 04:48:24;;;;;;;1.35;1.25;;;;;;;9.81;66.21;98905.75;4153624;28;20243;-55
2022/06/02 04:50:41;;;;;;;1.38;1.27;;;;;;;9.92;66.06;98907.69;4137150;28;20205;-55
2022/06/02 04:52:48;;;;;;;1.20;1.10;;;;;;;10.00;65.93;98903.75;4155231;28;20232;-54
2022/06/02 04:55:08;;;;;;;1.77;1.55;;;;;;;10.06;66.11;98908.31;4133989;28;20575;-56
2022/06/02 04:57:19;;;;;;;1.60;1.50;;;;;;;10.12;65.65;98912.81;4155268;28;20212;-56
2022/06/02 04:59:32;;;;;;;6.90;1.58;;;;;;;10.19;65.94;98910.78;4152629;28;20219;-55
2022/06/02 05:02:12;;;;;;;1.52;1.42;;;;;;;10.29;65.60;98911.03;4154654;28;20212;-56
2022/06/02 05:04:44;;;;;;;1.63;1.52;;;;;;;10.40;65.44;98911.03;4131408;28;20279;-55
2022/06/02 05:06:53;;;;;;;1.10;1.10;;;;;;;10.45;65.60;98913.03;4153306;28;20210;-54
2022/06/02 05:09:04;;;;;;;4.38;1.70;;;;;;;10.44;66.12;98912.22;4134258;28;20722;-55
2022/06/02 05:11:43;;;;;;;1.70;1.60;;;;;;;10.50;65.76;98911.28;4137426;28;20255;-55
2022/06/02 05:13:45;;;;;;;2.10;1.88;;;;;;;10.52;66.07;98908.28;4137976;28;20735;-53
2022/06/02 05:16:05;;;;;;;1.30;1.20;;;;;;;10.59;65.60;98912.56;4138164;28;20206;-55
2022/06/02 05:18:13;;;;;;;1.80;1.70;;;;;;;10.62;65.61;98916.72;4153299;28;20279;-55
2022/06/02 05:20:40;;;;;;;1.50;1.40;;;;;;;10.73;65.54;98918.59;4138025;28;20205;-54
2022/06/02 05:23:00;;;;;;;1.60;1.50;;;;;;;10.84;65.16;98924.88;4122536;28;20304;-56
2022/06/02 05:25:18;;;;;;;1.67;1.58;;;;;;;10.84;65.61;98919.41;4138393;28;20205;-55
2022/06/02 05:27:44;;;;;;;23.98;1.30;;;;;;;11.01;65.25;98931.28;4152793;28;20657;-54
2022/06/02 05:30:14;;;;;;;1.60;1.40;;;;;;;11.12;65.72;98933.13;4137130;28;22194;-54
2022/06/02 05:32:30;;;;;;;1.73;1.63;;;;;;;11.12;66.11;98938.59;4152638;28;20810;-54
2022/06/02 05:34:42;;;;;;;1.73;1.63;;;;;;;11.25;65.83;98932.84;4152348;28;20291;-55
2022/06/02 05:37:13;;;;;;;3.58;1.60;;;;;;;11.55;66.08;98922.47;4152743;28;20201;-54
2022/06/02 05:39:40;;;;;;;1.67;1.58;;;;;;;11.87;65.37;98931.84;4125712;28;20637;-53
2022/06/02 05:42:01;;;;;;;1.60;1.50;;;;;;;12.22;65.20;98943.41;4153420;28;20245;-55
2022/06/02 05:44:02;;;;;;;1.65;1.55;;;;;;;12.40;63.65;98953.28;4151202;28;20200;-53
2022/06/02 05:46:07;;;;;;;2.15;1.90;;;;;;;12.57;64.05;98952.19;4135480;28;20209;-54
2022/06/02 05:48:22;;;;;;;1.52;1.42;;;;;;;12.80;63.11;98954.72;4154136;28;20232;-55
2022/06/02 05:50:33;;;;;;;1.13;1.10;;;;;;;13.02;62.01;98941.88;4136819;28;20738;-55
2022/06/02 05:53:16;;;;;;;0.90;0.90;;;;;;;13.16;62.55;98942.31;4134057;28;20252;-54
2022/06/02 05:55:30;;;;;;;1.50;1.40;;;;;;;13.37;61.32;98942.28;4154519;28;20260;-55
2022/06/02 05:58:00;;;;;;;1.63;1.52;;;;;;;13.50;60.81;98952.88;4137889;28;20201;-54
2022/06/02 06:00:17;;;;;;;1.40;1.30;;;;;;;13.64;60.43;98940.38;4137199;28;20725;-55
2022/06/02 06:02:42;;;;;;;1.50;1.40;;;;;;;13.55;61.46;98941.94;4136872;28;20222;-55
2022/06/02 06:04:53;;;;;;;1.30;1.30;;;;;;;13.74;60.37;98940.50;4134458;28;20214;-55
2022/06/02 06:06:58;;;;;;;1.35;1.13;;;;;;;13.87;60.38;98933.75;4155453;28;20197;-54
2022/06/02 06:09:38;;;;;;;1.63;1.08;;;;;;;14.06;59.63;98943.28;4153785;28;20225;-53
2022/06/02 06:11:51;;;;;;;0.88;0.88;;;;;;;14.22;59.68;98943.19;4136126;28;20216;-54
2022/06/02 06:14:03;;;;;;;1.42;1.33;;;;;;;14.34;59.50;98941.06;4151597;28;20201;-54
2022/06/02 06:16:19;;;;;;;2.92;1.27;;;;;;;14.52;59.40;98953.59;4141132;28;20299;-54
2022/06/02 06:18:25;;;;;;;1.50;1.40;;;;;;;14.56;59.07;98954.75;4153090;28;20201;-53
2022/06/02 06:20:48;;;;;;;1.50;1.30;;;;;;;14.66;58.72;98958.38;4133990;28;20765;-55
2022/06/02 06:23:13;;;;;;;1.10;1.10;;;;;;;14.71;58.81;98952.06;4149456;28;20225;-54
2022/06/02 06:25:24;;;;;;;1.60;1.50;;;;;;;14.87;58.73;98957.41;4147852;28;20530;-54
2022/06/02 06:27:51;;;;;;;1.27;1.23;;;;;;;14.96;58.12;98955.81;4150056;28;20622;-55
2022/06/02 06:30:21;;;;;;;1.05;0.98;;;;;;;15.01;58.27;98953.09;4147923;28;20634;-55
2022/06/02 06:33:23;;;;;;;1.05;1.05;;;;;;;15.28;58.28;98959.28;4148380;28;20290;-53
2022/06/02 06:35:52;;;;;;;1.40;1.30;;;;;;;15.33;58.04;98962.09;4099511;28;20257;-55
2022/06/02 06:38:03;;;;;;;0.80;0.80;;;;;;;15.56;58.02;98956.09;4148642;28;20201;-54
2022/06/02 06:40:19;;;;;;;0.90;0.90;;;;;;;15.55;57.64;98957.19;4152793;28;21452;-54
2022/06/02 06:42:40;;;;;;;1.38;1.25;;;;;;;15.61;57.88;98958.88;4150876;28;20368;-55
2022/06/02 06:44:45;;;;;;;1.20;1.10;;;;;;;15.86;57.17;98947.06;4153407;28;20212;-55
2022/06/02 06:46:55;;;;;;;1.00;1.00;;;;;;;15.76;54.59;98953.38;4120683;28;20601;-52
2022/06/02 06:49:04;;;;;;;0.90;0.90;;;;;;;15.64;55.81;98961.06;4134978;28;20229;-53
2022/06/02 06:51:33;;;;;;;2.97;1.10;;;;;;;15.52;56.45;98963.28;4132793;28;20197;-52
2022/06/02 06:53:47;;;;;;;1.45;1.25;;;;;;;15.93;56.06;98955.91;4134223;28;20237;-55
2022/06/02 06:56:16;;;;;;;1.75;1.63;;;;;;;16.06;54.78;98956.22;4137630;28;20205;-54
2022/06/02 06:58:36;;;;;;;2.28;1.38;;;;;;;16.33;54.98;98962.31;4133232;28;20209;-53
2022/06/02 07:00:46;;;;;;;1.23;1.15;;;;;;;16.35;53.15;98960.09;4137571;28;20610;-54
2022/06/02 07:02:48;;;;;;;1.38;1.27;;;;;;;16.42;52.06;98955.13;4154950;28;20702;-55
2022/06/02 07:05:19;;;;;;;1.13;1.05;;;;;;;16.42;51.90;98951.56;4156612;28;20213;-54
2022/06/02 07:07:31;;;;;;;1.10;1.00;;;;;;;16.40;51.99;98940.78;4140441;28;20262;-54
2022/06/02 07:09:57;;;;;;;1.00;1.00;;;;;;;16.36;51.73;98950.69;4125809;28;20214;-52
2022/06/02 07:14:39;;;;;;;1.70;1.60;;;;;;;16.85;50.22;98937.97;4143864;28;20654;-52
2022/06/02 07:16:55;;;;;;;1.50;1.40;;;;;;;16.99;50.62;98939.03;4159679;28;20635;-54
2022/06/02 07:19:12;;;;;;;0.95;0.90;;;;;;;17.12;50.10;98943.97;4138292;28;20205;-53
2022/06/02 07:21:32;;;;;;;2.50;1.70;;;;;;;16.96;49.92;98944.28;4140439;28;20792;-54
2022/06/02 07:23:51;;;;;;;0.95;0.95;;;;;;;17.14;49.48;98941.75;4139104;28;20688;-53
2022/06/02 07:26:25;;;;;;;2.10;1.60;;;;;;;17.10;49.56;98946.16;4138806;28;20260;-53
2022/06/02 07:28:34;;;;;;;1.17;0.85;;;;;;;17.10;49.26;98937.88;4076910;29;20227;-53
2022/06/02 07:30:52;;;;;;;0.70;0.70;;;;;;;17.39;48.85;98933.38;4153745;28;20213;-53
2022/06/02 07:33:19;;;;;;;1.45;0.90;;;;;;;17.42;49.03;98932.78;4156688;28;20224;-53
2022/06/02 07:35:24;;;;;;;1.02;0.98;;;;;;;17.81;48.83;98930.94;4124151;28;20233;-53
2022/06/02 07:37:50;;;;;;;1.40;0.70;;;;;;;17.71;47.97;98942.06;4154130;28;20682;-54
2022/06/02 07:40:29;;;;;;;0.73;0.73;;;;;;;17.67;47.65;98943.75;4135778;28;20248;-53
2022/06/02 07:43:05;;;;;;;1.60;0.93;;;;;;;17.77;46.69;98940.91;4108355;28;20221;-54
2022/06/02 07:45:26;;;;;;;1.10;1.00;;;;;;;17.86;47.40;98937.25;4100719;28;20287;-53
2022/06/02 07:48:02;;;;;;;1.25;1.00;;;;;;;17.81;46.62;98942.00;4138302;28;20220;-53
2022/06/02 07:50:31;;;;;;;1.17;1.08;;;;;;;18.09;47.43;98944.03;4135873;28;20260;-53
2022/06/02 07:52:55;;;;;;;0.70;0.70;;;;;;;17.94;47.18;98935.81;4125359;28;20876;-53
2022/06/02 07:55:34;;;;;;;1.02;0.93;;;;;;;18.12;46.70;98946.22;4122702;28;20210;-52
2022/06/02 07:58:13;;;;;;;1.20;0.90;;;;;;;18.00;46.02;98941.06;4153799;28;20693;-52
2022/06/02 08:00:23;;;;;;;1.40;1.30;;;;;;;17.94;46.09;98946.91;4154164;28;20205;-52
2022/06/02 08:02:50;;;;;;;1.48;0.80;;;;;;;18.17;46.07;98946.16;4124159;28;20285;-52
2022/06/02 08:05:16;;;;;;;0.95;0.77;;;;;;;18.07;46.03;98946.25;4155107;28;20209;-53
2022/06/02 08:07:29;;;;;;;1.65;1.08;;;;;;;18.52;47.10;98948.72;4134592;28;20375;-53
2022/06/02 08:09:53;;;;;;;0.82;0.80;;;;;;;18.73;45.36;98944.63;4139951;28;20316;-52
2022/06/02 08:12:01;;;;;;;0.80;0.70;;;;;;;18.81;45.42;98950.38;4135942;28;20748;-52
2022/06/02 08:14:22;;;;;;;1.33;1.00;;;;;;;18.32;44.79;98943.34;4135651;28;20205;-52
2022/06/02 08:16:53;;;;;;;0.80;0.80;;;;;;;18.40;45.57;98951.03;4136430;28;20209;-52
2022/06/02 08:19:04;;;;;;;0.85;0.70;;;;;;;18.18;45.68;98936.78;4154972;28;20192;-53
2022/06/02 08:21:16;;;;;;;0.77;0.60;;;;;;;18.27;45.37;98946.09;4154445;28;20239;-53
2022/06/02 08:23:24;;;;;;;9.52;1.95;;;;;;;18.19;46.16;98944.78;4142223;28;20679;-52
2022/06/02 08:25:30;;;;;;;0.93;0.88;;;;;;;18.40;45.53;98940.78;4153115;28;20213;-52
2022/06/02 08:28:04;;;;;;;0.85;0.70;;;;;;;18.69;45.73;98949.09;4154438;28;21309;-52
2022/06/02 08:30:09;;;;;;;1.27;0.80;;;;;;;17.84;44.95;98958.06;4154132;28;20208;-52
2022/06/02 08:32:17;;;;;;;1.70;0.70;;;;;;;17.89;45.42;98949.69;4152602;28;20232;-52
2022/06/02 08:34:56;;;;;;;2.13;1.00;;;;;;;17.92;45.77;98949.94;4138386;28;20209;-53
2022/06/02 08:37:01;;;;;;;0.60;0.60;;;;;;;18.13;46.21;98957.00;4134282;28;20272;-53
2022/06/02 08:39:17;;;;;;;1.45;0.90;;;;;;;18.19;46.09;98957.81;4153828;28;20236;-52
2022/06/02 08:41:34;;;;;;;1.05;0.98;;;;;;;18.21;45.45;98959.19;4152441;28;20991;-52
2022/06/02 08:43:53;;;;;;;1.73;0.70;;;;;;;18.32;45.09;98965.50;4134819;28;20809;-52
2022/06/02 08:46:23;;;;;;;1.13;1.02;;;;;;;18.22;45.45;98952.53;4135766;28;20198;-52
2022/06/02 08:48:30;;;;;;;1.05;0.95;;;;;;;18.63;44.43;98951.09;4153215;28;20247;-52
2022/06/02 08:50:40;;;;;;;0.90;0.80;;;;;;;18.93;45.08;98955.50;4150018;28;20237;-53
2022/06/02 08:52:54;;;;;;;1.80;1.00;;;;;;;18.90;45.01;98956.09;4134975;28;20230;-53
2022/06/02 08:55:19;;;;;;;1.25;0.90;;;;;;;19.20;45.34;98955.81;4136528;28;20213;-52
2022/06/02 08:57:50;;;;;;;0.73;0.60;;;;;;;19.19;45.07;98962.44;4139408;28;20293;-53
2022/06/02 09:00:04;;;;;;;0.90;0.65;;;;;;;19.13;43.19;98961.66;4133636;28;20585;-53
2022/06/02 09:02:42;;;;;;;0.65;0.60;;;;;;;18.77;42.91;98956.81;4154405;28;21423;-53
2022/06/02 09:05:27;;;;;;;0.50;0.50;;;;;;;18.74;43.19;98955.44;4135257;28;20208;-52
2022/06/02 09:08:00;;;;;;;0.50;0.50;;;;;;;18.95;44.27;98956.03;4108045;28;20884;-52
2022/06/02 09:10:43;;;;;;;1.77;0.88;;;;;;;18.86;43.75;98949.50;4152835;28;20697;-53
2022/06/02 09:12:50;;;;;;;0.73;0.70;;;;;;;19.16;43.65;98960.25;4112852;28;20263;-53
2022/06/02 09:14:59;;;;;;;0.75;0.75;;;;;;;19.16;43.28;98960.25;4134026;28;20205;-52
2022/06/02 09:17:25;;;;;;;0.93;0.60;;;;;;;19.54;43.62;98950.94;4134764;28;20304;-52
2022/06/02 09:19:35;;;;;;;0.95;0.73;;;;;;;20.27;45.11;98949.34;4135196;28;20261;-53
2022/06/02 09:21:40;;;;;;;0.70;0.70;;;;;;;20.43;42.54;98947.97;4150257;28;20654;-52
2022/06/02 09:23:47;;;;;;;0.57;0.57;;;;;;;20.86;42.15;98949.47;4151785;28;20254;-53
2022/06/02 09:26:10;;;;;;;0.57;0.57;;;;;;;20.70;42.48;98950.88;4136256;28;20381;-52
2022/06/02 09:28:27;;;;;;;0.68;0.68;;;;;;;19.38;40.89;98941.97;4149106;28;20765;-52
2022/06/02 09:31:04;;;;;;;0.60;0.50;;;;;;;19.32;42.33;98947.91;4150065;28;20319;-52
2022/06/02 09:33:37;;;;;;;0.95;0.95;;;;;;;19.98;43.52;98940.34;4149204;28;20625;-53
2022/06/02 09:35:48;;;;;;;6.63;0.77;;;;;;;20.30;43.59;98934.88;4153375;28;20204;-53
2022/06/02 09:38:09;;;;;;;0.93;0.93;;;;;;;20.58;42.11;98939.41;4137106;28;20293;-53
2022/06/02 09:40:30;;;;;;;0.82;0.82;;;;;;;19.75;43.03;98939.28;4134055;28;20206;-52
2022/06/02 09:43:10;;;;;;;1.33;1.10;;;;;;;20.14;43.60;98939.84;4152016;28;20221;-53
2022/06/02 09:45:26;;;;;;;0.70;0.70;;;;;;;20.32;42.66;98929.81;4115734;28;20314;-52
2022/06/02 09:48:04;;;;;;;0.70;0.70;;;;;;;21.04;43.06;98937.47;4151971;28;20204;-52
2022/06/02 09:50:07;;;;;;;0.75;0.75;;;;;;;21.11;41.96;98935.09;4150567;28;20208;-51
2022/06/02 09:52:24;;;;;;;0.70;0.70;;;;;;;20.60;41.08;98942.69;4140198;28;20685;-52
2022/06/02 09:55:04;;;;;;;2.03;0.88;;;;;;;20.50;41.60;98948.44;4141537;28;20681;-51
2022/06/02 09:57:57;;;;;;;3.35;1.02;;;;;;;20.61;42.92;98945.16;4140951;28;20205;-52
2022/06/02 10:00:11;;;;;;;1.83;0.88;;;;;;;20.62;42.24;98940.41;4136277;28;20438;-52
2022/06/02 10:02:42;;;;;;;0.52;0.52;;;;;;;20.95;42.20;98947.63;4134639;28;20306;-51
2022/06/02 10:05:03;;;;;;;0.75;0.55;;;;;;;21.36;41.21;98940.97;4149087;28;20809;-52
2022/06/02 10:07:18;;;;;;;0.80;0.80;;;;;;;21.31;40.80;98954.19;4137121;28;20204;-53
2022/06/02 10:09:44;;;;;;;0.77;0.77;;;;;;;20.97;40.72;98942.63;4134186;28;20757;-53
2022/06/02 10:14:52;;;;;;;0.60;0.60;;;;;;;20.88;40.74;98950.00;4151881;28;20670;-51
2022/06/02 10:17:27;;;;;;;0.80;0.70;;;;;;;20.32;40.64;98947.31;4153623;28;20620;-51
2022/06/02 10:19:59;;;;;;;1.00;1.00;;;;;;;20.84;41.43;98960.88;4135695;28;20235;-52
2022/06/02 10:22:11;;;;;;;1.52;1.42;;;;;;;20.98;42.10;98955.41;4147747;28;20239;-53
2022/06/02 10:24:35;;;;;;;1.20;1.10;;;;;;;21.29;41.13;98948.94;4151044;28;20220;-51
2022/06/02 10:27:14;;;;;;;2.83;0.98;;;;;;;21.32;40.72;98939.94;4134829;28;20205;-53
2022/06/02 10:29:35;;;;;;;0.60;0.60;;;;;;;20.66;41.63;98941.47;4136021;28;20315;-51
2022/06/02 10:31:36;;;;;;;0.80;0.80;;;;;;;20.10;43.15;98940.75;4133182;28;20227;-52
2022/06/02 10:34:13;;;;;;;0.77;0.63;;;;;;;20.78;43.22;98944.59;4140728;28;20236;-51
2022/06/02 10:36:27;;;;;;;0.70;0.70;;;;;;;20.95;42.60;98937.34;4056925;29;20659;-51
2022/06/02 10:38:44;;;;;;;1.27;1.00;;;;;;;20.98;41.54;98939.50;4107734;28;20239;-53
2022/06/02 10:41:24;;;;;;;1.10;0.80;;;;;;;21.06;41.69;98937.97;4135446;28;20208;-51
2022/06/02 10:43:34;;;;;;;1.02;0.93;;;;;;;20.97;41.66;98942.63;4132900;28;20229;-52
2022/06/02 10:46:01;;;;;;;1.05;1.00;;;;;;;21.51;41.84;98945.44;4133994;28;20216;-53
2022/06/02 10:48:24;;;;;;;0.75;0.68;;;;;;;21.71;41.86;98943.03;4141802;28;20197;-53
2022/06/02 10:50:46;;;;;;;1.60;0.77;;;;;;;21.55;40.46;98936.13;4151715;28;20219;-52
2022/06/02 10:53:26;;;;;;;0.90;0.90;;;;;;;21.32;40.40;98939.13;4134111;28;20229;-53
2022/06/02 10:56:03;;;;;;;1.88;0.90;;;;;;;21.19;41.18;98939.94;4080620;29;20208;-52
2022/06/02 10:58:14;;;;;;;0.85;0.85;;;;;;;21.53;41.28;98941.19;4095563;28;20202;-53
2022/06/02 11:00:42;;;;;;;1.17;1.08;;;;;;;21.41;41.97;98940.88;4096541;28;20256;-51
2022/06/02 11:03:32;;;;;;;0.82;0.70;;;;;;;21.41;40.72;98948.41;4141300;28;20247;-50
2022/06/02 11:06:18;;;;;;;4.13;1.30;;;;;;;21.76;40.14;98939.31;4131779;28;20205;-53
2022/06/02 11:08:45;;;;;;;1.63;0.80;;;;;;;21.91;40.88;98941.78;4130792;28;20197;-51
2022/06/02 11:11:17;;;;;;;1.02;0.85;;;;;;;22.43;39.63;98939.16;4150916;28;20208;-52